Terminal Aerodrome Forecast
Issued by NWS

Home | Current Version | Previous Version | Text Only | Print | Product List | Glossary On
Versions: 1 2 3 4 5 6 7 8 9 10 11 12 13 14 15 16 17 18 19 20 21 22
000
FTUS41 KBGM 310500
TAFITH
TAF
KITH 310533Z 3106/0106 VRB03KT P6SM BKN035
     FM311400 15005KT P6SM SCT035 SCT100
     FM311800 15005KT P6SM OVC080
     FM312300 10003KT P6SM OVC040=

USA.gov is the U.S. government's official web portal to all federal, state and local government web resources and services.